Time;durP1;ratioP1;P1;durP2;ratioP2;P2;SDS_P1;SDS_P2;PMS_P1;PMS_P2;Temp;Humidity;BMP_temperature;BMP_pressure;BME280_temperature;BME280_humidity;BME280_pressure;Samples;Min_cycle;Max_cycle;Signal;HPM_P1;HPM_P2
2021/01/04 00:02:13;;;;;;;54.63;27.35;;;1.00;66.70;;;;;;5050205;28;20053;-76
2021/01/04 00:05:10;;;;;;;57.45;29.48;;;1.00;66.70;;;;;;5046856;28;20230;-73
2021/01/04 00:08:13;;;;;;;51.17;27.38;;;1.00;66.70;;;;;;5044261;28;20045;-73
2021/01/04 00:10:59;;;;;;;56.65;26.80;;;0.90;66.10;;;;;;5048969;28;20124;-75
2021/01/04 00:13:32;;;;;;;52.28;27.35;;;1.00;66.80;;;;;;5043023;28;20049;-75
2021/01/04 00:16:08;;;;;;;63.67;30.25;;;0.90;66.10;;;;;;5046875;28;20127;-74
2021/01/04 00:18:44;;;;;;;57.85;29.25;;;1.00;66.60;;;;;;5048914;28;20522;-75
2021/01/04 00:21:21;;;;;;;59.85;29.85;;;1.10;66.60;;;;;;5048284;28;20059;-73
2021/01/04 00:23:59;;;;;;;59.75;30.00;;;1.10;66.60;;;;;;5044675;28;20049;-74
2021/01/04 00:26:34;;;;;;;60.95;30.52;;;1.10;66.20;;;;;;5045780;28;20057;-73
2021/01/04 00:29:02;;;;;;;57.75;29.17;;;1.00;66.00;;;;;;5047285;28;20045;-74
2021/01/04 00:31:33;;;;;;;59.60;29.58;;;1.10;65.20;;;;;;5049365;28;20059;-73
2021/01/04 00:34:07;;;;;;;56.97;29.30;;;1.00;65.10;;;;;;5044293;28;20558;-75
2021/01/04 00:36:51;;;;;;;55.03;27.70;;;1.00;65.10;;;;;;5048515;28;20132;-73
2021/01/04 00:39:46;;;;;;;54.43;29.07;;;1.00;65.90;;;;;;5050058;28;20525;-74
2021/01/04 00:42:25;;;;;;;47.60;25.05;;;1.10;66.80;;;;;;5046352;28;20326;-74
2021/01/04 00:45:18;;;;;;;52.00;25.20;;;1.00;65.70;;;;;;5045733;28;20045;-73
2021/01/04 00:47:58;;;;;;;47.47;24.63;;;1.10;64.60;;;;;;5044095;28;20070;-73
2021/01/04 00:50:46;;;;;;;51.13;25.30;;;1.10;62.80;;;;;;5050329;28;20118;-73
2021/01/04 00:53:19;;;;;;;50.50;26.40;;;1.20;61.60;;;;;;5051014;28;20049;-73
2021/01/04 00:56:06;;;;;;;51.63;26.23;;;1.30;61.40;;;;;;5048501;28;20052;-74
2021/01/04 00:59:00;;;;;;;49.38;25.73;;;1.20;60.20;;;;;;5052136;28;20065;-75
2021/01/04 01:01:41;;;;;;;52.85;27.55;;;1.30;60.70;;;;;;5052898;28;20132;-74
2021/01/04 01:04:18;;;;;;;48.85;25.73;;;1.20;60.20;;;;;;5048580;28;20045;-78
2021/01/04 01:06:53;;;;;;;46.97;25.45;;;1.20;61.00;;;;;;5050892;28;20049;-73
2021/01/04 01:09:20;;;;;;;51.03;25.98;;;1.30;61.40;;;;;;5052117;28;20156;-75
2021/01/04 01:12:11;;;;;;;52.72;27.77;;;1.30;61.90;;;;;;5049181;28;20068;-73
2021/01/04 01:14:45;;;;;;;48.92;24.90;;;1.40;61.50;;;;;;5042825;28;20172;-73
2021/01/04 01:17:47;;;;;;;55.20;26.90;;;1.40;59.80;;;;;;5051495;28;20045;-73
2021/01/04 01:20:19;;;;;;;47.28;25.40;;;1.30;59.40;;;;;;5052267;28;20041;-74
2021/01/04 01:22:46;;;;;;;45.08;25.35;;;1.30;59.00;;;;;;5050014;28;20580;-74
2021/01/04 01:25:16;;;;;;;49.00;25.08;;;1.30;58.20;;;;;;5049475;28;20049;-74
2021/01/04 01:28:28;;;;;;;46.60;25.70;;;1.40;58.90;;;;;;5051648;28;20132;-73
2021/01/04 01:31:16;;;;;;;46.47;24.55;;;1.30;57.30;;;;;;5052358;28;20049;-74
2021/01/04 01:34:05;;;;;;;47.08;25.02;;;1.40;56.70;;;;;;5050343;28;20511;-74
2021/01/04 01:36:43;;;;;;;50.97;26.85;;;1.30;56.30;;;;;;5048508;28;20131;-74
2021/01/04 01:39:41;;;;;;;44.05;23.48;;;1.40;56.70;;;;;;5051263;28;20086;-75
2021/01/04 01:42:26;;;;;;;43.22;22.15;;;1.40;56.00;;;;;;5009574;28;20046;-73
2021/01/04 01:45:02;;;;;;;46.03;24.42;;;1.30;54.50;;;;;;5047988;28;20492;-76
2021/01/04 01:47:39;;;;;;;45.70;23.27;;;1.30;55.10;;;;;;5047781;28;20095;-73
2021/01/04 01:50:14;;;;;;;52.15;25.88;;;1.40;55.20;;;;;;5051256;28;20503;-74
2021/01/04 01:52:54;;;;;;;53.35;26.33;;;1.40;55.00;;;;;;5048452;28;20044;-74
2021/01/04 01:55:48;;;;;;;51.45;25.95;;;1.40;55.80;;;;;;5046069;28;20052;-73
2021/01/04 01:58:34;;;;;;;51.40;25.23;;;1.40;56.30;;;;;;5050093;28;20052;-73
2021/01/04 02:01:08;;;;;;;48.25;24.85;;;1.40;55.80;;;;;;5050064;28;20513;-73
2021/01/04 02:03:44;;;;;;;47.08;24.20;;;1.20;55.00;;;;;;5048634;28;20049;-75
2021/01/04 02:06:24;;;;;;;51.30;26.65;;;1.20;56.80;;;;;;5046309;28;20075;-74
2021/01/04 02:08:57;;;;;;;55.03;28.15;;;1.20;56.70;;;;;;5049557;28;20491;-73
2021/01/04 02:11:34;;;;;;;56.28;27.63;;;1.30;56.00;;;;;;5050638;28;20464;-74
2021/01/04 02:14:08;;;;;;;50.85;26.55;;;1.30;56.10;;;;;;5047947;28;20057;-75
2021/01/04 02:16:41;;;;;;;53.05;28.00;;;1.30;57.20;;;;;;5046032;28;20053;-74
2021/01/04 02:19:27;;;;;;;57.15;28.85;;;1.20;58.10;;;;;;5047546;28;20049;-74
2021/01/04 02:22:25;;;;;;;58.58;28.67;;;1.20;59.00;;;;;;5050139;28;20048;-74
2021/01/04 02:24:53;;;;;;;53.58;27.92;;;1.20;60.10;;;;;;5046136;28;20048;-74
2021/01/04 02:27:25;;;;;;;58.85;28.70;;;1.20;60.60;;;;;;5048297;28;20470;-75
2021/01/04 02:29:52;;;;;;;50.47;25.45;;;1.20;61.10;;;;;;5050109;28;20044;-73
2021/01/04 02:32:20;;;;;;;50.80;26.25;;;1.10;61.00;;;;;;5048082;28;20052;-73
2021/01/04 02:34:50;;;;;;;54.85;26.38;;;1.10;61.80;;;;;;5046922;28;20053;-73
2021/01/04 02:37:19;;;;;;;59.33;29.20;;;1.20;62.30;;;;;;5048679;28;20037;-74
2021/01/04 02:39:51;;;;;;;56.55;28.02;;;1.10;62.00;;;;;;5050038;28;20407;-74
2021/01/04 02:42:21;;;;;;;58.50;29.92;;;1.20;62.70;;;;;;5049522;28;20096;-74
2021/01/04 02:44:49;;;;;;;54.35;27.35;;;1.20;62.20;;;;;;5046956;28;20127;-73
2021/01/04 02:47:36;;;;;;;55.67;28.02;;;1.10;62.90;;;;;;5047378;28;20056;-75
2021/01/04 02:50:11;;;;;;;50.97;25.60;;;1.10;62.90;;;;;;5048727;28;20064;-73
2021/01/04 02:52:54;;;;;;;55.28;28.17;;;1.10;62.80;;;;;;5047833;28;20068;-73
2021/01/04 02:55:32;;;;;;;57.00;29.05;;;1.00;63.30;;;;;;5045524;28;20049;-74
2021/01/04 02:58:10;;;;;;;56.13;26.60;;;1.10;64.20;;;;;;5047397;28;20116;-73
2021/01/04 03:00:42;;;;;;;54.90;27.67;;;1.10;64.10;;;;;;5046776;28;20052;-73
2021/01/04 03:03:09;;;;;;;61.88;29.60;;;1.10;63.60;;;;;;5047844;28;20052;-74
2021/01/04 03:05:38;;;;;;;61.80;31.27;;;1.10;64.00;;;;;;5044846;28;20059;-75
2021/01/04 03:08:05;;;;;;;63.65;31.52;;;1.10;62.90;;;;;;5048112;28;20044;-74
2021/01/04 03:10:35;;;;;;;67.95;31.88;;;1.10;63.70;;;;;;5049771;28;20095;-74
2021/01/04 03:13:13;;;;;;;63.95;31.38;;;1.10;63.20;;;;;;5048085;28;20053;-73
2021/01/04 03:16:00;;;;;;;52.05;27.02;;;1.10;63.50;;;;;;5043307;28;20053;-74
2021/01/04 03:18:33;;;;;;;61.92;29.50;;;1.00;62.90;;;;;;5049383;28;20511;-73
2021/01/04 03:21:01;;;;;;;58.63;27.30;;;1.00;64.60;;;;;;5050467;28;20041;-73
2021/01/04 03:23:30;;;;;;;53.45;26.77;;;0.90;64.70;;;;;;5047674;28;20060;-73
2021/01/04 03:26:05;;;;;;;54.33;28.20;;;0.90;66.20;;;;;;5046309;28;20414;-73
2021/01/04 03:28:33;;;;;;;56.28;27.95;;;0.90;66.60;;;;;;5049389;28;20274;-72
2021/01/04 03:31:01;;;;;;;60.92;30.38;;;0.90;66.70;;;;;;5049713;28;20049;-74
2021/01/04 03:33:28;;;;;;;58.28;28.08;;;0.90;66.70;;;;;;5044723;28;20726;-75
2021/01/04 03:35:55;;;;;;;55.33;27.98;;;0.90;67.30;;;;;;5046039;28;20423;-73
2021/01/04 03:38:22;;;;;;;56.33;29.00;;;0.80;66.60;;;;;;5048149;28;20041;-72
2021/01/04 03:40:50;;;;;;;57.92;29.23;;;0.80;66.60;;;;;;5049576;28;20049;-73
2021/01/04 03:43:17;;;;;;;62.85;30.63;;;0.90;67.30;;;;;;5047341;28;20060;-73
2021/01/04 03:45:45;;;;;;;57.58;27.73;;;0.90;66.70;;;;;;5046629;28;20051;-73
2021/01/04 03:48:12;;;;;;;61.05;28.88;;;0.90;66.70;;;;;;5046972;28;20037;-73
2021/01/04 03:50:39;;;;;;;58.92;29.90;;;0.90;67.40;;;;;;5045837;28;20049;-75
2021/01/04 03:53:06;;;;;;;61.53;30.35;;;1.00;66.80;;;;;;5042897;28;20045;-73
2021/01/04 03:55:33;;;;;;;66.70;33.00;;;0.90;66.70;;;;;;5045633;28;20052;-73
2021/01/04 03:58:00;;;;;;;63.58;31.73;;;0.90;67.90;;;;;;5047677;28;20037;-73
2021/01/04 04:00:27;;;;;;;61.47;31.35;;;1.00;68.40;;;;;;5049922;28;20048;-73
2021/01/04 04:02:55;;;;;;;68.05;33.20;;;0.90;68.80;;;;;;5044806;28;20140;-72
2021/01/04 04:05:22;;;;;;;62.08;31.92;;;1.00;69.00;;;;;;5045544;28;20060;-74
2021/01/04 04:07:49;;;;;;;65.97;31.05;;;1.00;68.50;;;;;;5046338;28;20055;-73
2021/01/04 04:10:18;;;;;;;61.15;31.95;;;1.00;68.90;;;;;;5047782;28;20056;-74
2021/01/04 04:12:46;;;;;;;69.93;32.33;;;1.00;68.80;;;;;;5044657;28;20064;-73
2021/01/04 04:15:16;;;;;;;63.53;31.67;;;0.90;68.90;;;;;;5041643;28;20056;-75
2021/01/04 04:17:43;;;;;;;72.75;33.28;;;0.90;68.70;;;;;;5045104;28;20049;-70
2021/01/04 04:20:13;;;;;;;70.03;31.80;;;0.90;69.60;;;;;;5050271;28;20110;-75
2021/01/04 04:22:39;;;;;;;71.35;32.35;;;0.90;69.50;;;;;;5046409;28;20056;-74
2021/01/04 04:25:09;;;;;;;75.47;34.60;;;0.90;69.40;;;;;;5046933;28;20052;-73
2021/01/04 04:27:36;;;;;;;72.05;32.22;;;0.90;70.00;;;;;;5049436;28;20047;-74
2021/01/04 04:30:05;;;;;;;68.85;33.67;;;1.00;69.50;;;;;;5047623;28;20491;-73
2021/01/04 04:32:31;;;;;;;68.45;31.92;;;0.90;68.70;;;;;;5048193;28;20729;-73
2021/01/04 04:34:58;;;;;;;70.00;32.33;;;0.80;69.00;;;;;;5047251;28;20060;-74
2021/01/04 04:37:26;;;;;;;71.80;31.58;;;0.80;69.80;;;;;;5046516;28;20045;-73
2021/01/04 04:39:53;;;;;;;71.32;32.15;;;0.80;70.90;;;;;;5050143;28;20052;-74
2021/01/04 04:42:20;;;;;;;65.18;31.02;;;0.80;70.60;;;;;;5047971;28;20048;-72
2021/01/04 04:44:57;;;;;;;60.28;30.35;;;0.80;71.20;;;;;;5044928;28;20047;-73
2021/01/04 04:47:48;;;;;;;59.80;29.88;;;0.80;71.50;;;;;;5048619;28;20052;-74
2021/01/04 04:50:29;;;;;;;59.28;28.52;;;0.80;71.40;;;;;;5049582;28;20051;-74
2021/01/04 04:53:15;;;;;;;65.07;30.95;;;0.80;71.80;;;;;;5045881;28;20041;-73
2021/01/04 04:56:02;;;;;;;62.42;30.02;;;0.80;71.90;;;;;;5046056;28;20052;-73
2021/01/04 04:58:39;;;;;;;62.95;30.30;;;0.80;71.80;;;;;;5046858;28;20051;-71
2021/01/04 05:01:30;;;;;;;56.50;28.50;;;0.80;71.90;;;;;;5050332;28;20052;-74
2021/01/04 05:04:24;;;;;;;56.45;28.73;;;0.80;71.40;;;;;;5044067;28;20044;-74
2021/01/04 05:06:58;;;;;;;60.07;28.67;;;0.80;71.70;;;;;;5045692;28;20049;-74
2021/01/04 05:09:51;;;;;;;58.60;29.65;;;0.80;71.70;;;;;;5046821;28;20056;-72
2021/01/04 05:12:36;;;;;;;56.53;27.88;;;0.90;72.00;;;;;;5050169;28;20045;-75
2021/01/04 05:15:13;;;;;;;71.50;30.70;;;0.90;71.80;;;;;;5049005;28;20069;-74
2021/01/04 05:18:03;;;;;;;65.72;29.48;;;0.90;71.80;;;;;;5047434;28;20049;-74
2021/01/04 05:20:55;;;;;;;61.05;30.23;;;0.90;70.70;;;;;;5052592;28;20064;-72
2021/01/04 05:23:51;;;;;;;57.33;28.27;;;0.80;71.20;;;;;;5047188;28;20474;-76
2021/01/04 05:26:41;;;;;;;61.22;29.50;;;0.80;71.60;;;;;;5046125;28;20045;-74
2021/01/04 05:29:39;;;;;;;52.58;27.35;;;0.80;71.50;;;;;;5049171;28;20508;-75
2021/01/04 05:32:45;;;;;;;70.40;29.60;;;0.80;71.20;;;;;;5050558;28;20051;-74
2021/01/04 05:35:14;;;;;;;70.78;29.75;;;0.70;70.50;;;;;;5039427;28;20495;-74
2021/01/04 05:37:49;;;;;;;60.25;29.30;;;0.80;71.60;;;;;;5051285;28;20049;-74
2021/01/04 05:40:43;;;;;;;62.25;29.38;;;0.80;71.50;;;;;;5052270;28;20048;-74
2021/01/04 05:43:16;;;;;;;60.33;27.58;;;0.80;71.70;;;;;;5046519;28;20052;-73
2021/01/04 05:45:51;;;;;;;65.90;29.13;;;0.80;71.50;;;;;;5048776;28;20392;-74
2021/01/04 05:48:42;;;;;;;64.03;29.42;;;0.80;71.20;;;;;;5050401;28;20049;-74
2021/01/04 05:51:16;;;;;;;57.58;27.95;;;0.80;71.10;;;;;;5051128;28;20139;-74
2021/01/04 05:53:44;;;;;;;;;;;0.80;70.60;;;;;;5050395;28;20045;-74
2021/01/04 05:56:18;;;;;;;67.40;30.80;;;0.80;70.60;;;;;;5048609;28;19921;-74
2021/01/04 05:58:46;;;;;;;60.77;29.53;;;0.80;70.60;;;;;;5049708;28;20079;-74
2021/01/04 06:01:15;;;;;;;66.90;29.20;;;0.80;70.60;;;;;;5052020;28;20824;-74
2021/01/04 06:03:42;;;;;;;65.82;29.30;;;0.80;70.60;;;;;;5049756;28;20086;-73
2021/01/04 06:06:14;;;;;;;60.45;29.77;;;0.80;71.50;;;;;;5048789;28;20071;-74
2021/01/04 06:08:40;;;;;;;59.95;28.23;;;0.80;71.20;;;;;;5050444;28;20045;-74
2021/01/04 06:11:09;;;;;;;64.93;29.80;;;0.80;70.80;;;;;;5050666;28;20414;-73
2021/01/04 06:13:39;;;;;;;62.75;29.50;;;0.80;70.60;;;;;;5046363;28;20135;-74
2021/01/04 06:16:08;;;;;;;61.67;28.73;;;0.70;71.40;;;;;;5048780;28;20578;-77
2021/01/04 06:18:41;;;;;;;60.03;28.45;;;0.80;71.60;;;;;;5050378;28;20055;-73
2021/01/04 06:21:22;;;;;;;60.35;28.35;;;0.80;71.70;;;;;;5048413;28;20059;-74
2021/01/04 06:23:51;;;;;;;66.55;30.05;;;0.70;70.80;;;;;;5048933;28;20447;-74
2021/01/04 06:26:21;;;;;;;66.03;28.88;;;0.80;72.30;;;;;;5048829;28;20118;-73
2021/01/04 06:28:53;;;;;;;62.05;30.20;;;0.80;71.70;;;;;;5049805;28;20045;-73
2021/01/04 06:31:31;;;;;;;64.80;29.02;;;0.80;71.60;;;;;;5050718;28;20045;-74
2021/01/04 06:34:02;;;;;;;58.47;28.08;;;0.80;71.30;;;;;;5046848;28;20048;-73
2021/01/04 06:36:32;;;;;;;58.22;26.20;;;0.70;70.50;;;;;;5048593;28;20045;-73
2021/01/04 06:39:11;;;;;;;62.58;28.98;;;0.80;70.80;;;;;;5046427;28;20562;-74
2021/01/04 06:41:39;;;;;;;65.03;28.35;;;0.70;70.70;;;;;;5050332;28;20136;-75
2021/01/04 06:44:17;;;;;;;60.65;27.73;;;0.80;71.50;;;;;;5049747;28;20049;-76
2021/01/04 06:47:28;;;;;;;66.50;29.15;;;0.80;70.60;;;;;;5049454;28;20394;-72
2021/01/04 06:50:03;;;;;;;71.60;28.85;;;0.80;70.60;;;;;;5045876;28;20515;-72
2021/01/04 06:52:57;;;;;;;59.40;27.85;;;0.70;69.20;;;;;;5048611;28;20067;-73
2021/01/04 06:55:49;;;;;;;65.72;28.48;;;0.70;69.60;;;;;;5046510;28;20514;-74
2021/01/04 06:58:50;;;;;;;58.13;26.83;;;0.80;70.60;;;;;;5048954;28;20048;-74
2021/01/04 07:01:37;;;;;;;69.53;29.50;;;0.80;69.70;;;;;;5050537;28;20053;-74
2021/01/04 07:04:25;;;;;;;58.65;25.92;;;0.80;69.80;;;;;;5043717;28;20045;-74
2021/01/04 07:07:20;;;;;;;69.53;28.17;;;0.80;69.40;;;;;;5045514;28;20064;-74
2021/01/04 07:10:28;;;;;;;64.18;28.38;;;0.80;68.70;;;;;;5043939;28;20041;-73
2021/01/04 07:13:20;;;;;;;62.53;28.75;;;0.80;68.50;;;;;;5037382;28;20041;-74
2021/01/04 07:15:59;;;;;;;61.55;28.33;;;0.70;69.00;;;;;;5043473;28;20045;-74
2021/01/04 07:18:42;;;;;;;65.70;29.27;;;0.80;69.10;;;;;;5041852;28;20048;-74
2021/01/04 07:21:25;;;;;;;68.07;29.33;;;0.70;67.80;;;;;;5047181;28;20692;-74
2021/01/04 07:24:07;;;;;;;66.95;29.02;;;0.70;68.90;;;;;;5043791;28;20056;-76
2021/01/04 07:26:43;;;;;;;60.15;28.23;;;0.80;69.30;;;;;;5044413;28;20044;-74
2021/01/04 07:29:27;;;;;;;68.68;28.52;;;0.80;69.30;;;;;;5047516;28;20407;-75
2021/01/04 07:31:59;;;;;;;64.95;30.42;;;0.80;69.30;;;;;;5044310;28;20057;-73
2021/01/04 07:34:30;;;;;;;63.75;28.70;;;0.80;69.20;;;;;;5044142;28;21111;-74
2021/01/04 07:37:26;;;;;;;69.38;30.15;;;0.80;68.90;;;;;;5045505;28;20049;-73
2021/01/04 07:39:59;;;;;;;59.15;27.80;;;0.90;68.10;;;;;;5046228;28;20045;-73
2021/01/04 07:42:42;;;;;;;61.95;28.90;;;0.70;67.10;;;;;;5049598;28;20099;-73
2021/01/04 07:45:46;;;;;;;61.22;27.42;;;0.70;68.00;;;;;;5048469;28;20495;-74
2021/01/04 07:48:49;;;;;;;61.45;27.27;;;0.80;69.80;;;;;;5049461;28;20049;-74
2021/01/04 07:51:45;;;;;;;59.35;27.58;;;0.80;69.50;;;;;;5027604;28;20041;-74
2021/01/04 07:54:48;;;;;;;60.00;26.13;;;0.80;70.40;;;;;;5049582;28;20672;-75
2021/01/04 07:57:49;;;;;;;60.53;27.75;;;0.80;70.20;;;;;;5052475;28;20049;-74
2021/01/04 08:00:45;;;;;;;64.45;27.67;;;0.80;67.80;;;;;;5048772;28;20056;-74
2021/01/04 08:03:56;;;;;;;57.72;26.20;;;0.90;69.50;;;;;;5052458;28;20111;-73
2021/01/04 08:07:02;;;;;;;58.42;27.15;;;0.90;67.20;;;;;;5051064;28;20139;-73
2021/01/04 08:09:54;;;;;;;62.50;27.45;;;0.90;66.90;;;;;;5052246;28;20049;-73
2021/01/04 08:12:42;;;;;;;54.30;26.95;;;0.90;67.20;;;;;;5049222;28;20140;-73
2021/01/04 08:15:39;;;;;;;56.85;26.40;;;1.00;66.80;;;;;;5045179;28;20158;-77
2021/01/04 08:18:09;;;;;;;51.22;24.73;;;1.00;64.90;;;;;;5051562;28;20041;-75
2021/01/04 08:20:42;;;;;;;57.67;25.48;;;1.00;65.00;;;;;;5051216;28;20445;-74
2021/01/04 08:23:40;;;;;;;52.63;25.33;;;0.90;65.10;;;;;;5051139;28;20041;-74
2021/01/04 08:26:24;;;;;;;54.20;24.45;;;1.00;65.40;;;;;;5048603;28;20053;-73
2021/01/04 08:29:05;;;;;;;57.97;26.48;;;1.10;64.70;;;;;;5051110;28;20041;-76
2021/01/04 08:31:54;;;;;;;47.20;23.33;;;1.10;64.80;;;;;;5049879;28;20171;-74
2021/01/04 08:34:23;;;;;;;50.78;24.73;;;1.00;62.70;;;;;;5048831;28;20049;-75
2021/01/04 08:36:55;;;;;;;52.95;25.05;;;1.10;64.20;;;;;;5049002;28;20067;-73
2021/01/04 08:39:36;;;;;;;54.10;25.15;;;1.10;64.00;;;;;;5048923;28;20065;-72
2021/01/04 08:42:25;;;;;;;55.50;25.10;;;1.10;63.90;;;;;;5052619;28;20099;-78
2021/01/04 08:44:58;;;;;;;49.88;24.35;;;1.10;63.60;;;;;;5047691;28;20059;-75
2021/01/04 08:47:35;;;;;;;52.40;25.25;;;1.30;63.70;;;;;;5052434;28;20041;-73
2021/01/04 08:50:21;;;;;;;48.40;24.92;;;1.00;60.40;;;;;;5050888;28;20052;-74
2021/01/04 08:52:49;;;;;;;47.03;24.45;;;1.10;64.10;;;;;;5036391;28;20057;-73
2021/01/04 08:55:29;;;;;;;48.45;23.13;;;1.10;62.10;;;;;;5046416;28;20056;-75
2021/01/04 08:58:00;;;;;;;48.83;23.50;;;1.10;62.80;;;;;;5049479;28;20045;-73
2021/01/04 09:00:29;;;;;;;50.90;24.65;;;1.10;62.30;;;;;;5051860;28;20051;-73
2021/01/04 09:02:57;;;;;;;49.03;23.70;;;1.20;62.90;;;;;;5051218;28;20049;-73
2021/01/04 09:05:33;;;;;;;50.65;24.52;;;1.20;60.60;;;;;;5047911;28;20057;-73
2021/01/04 09:08:01;;;;;;;48.85;24.33;;;1.30;60.00;;;;;;5053098;28;20045;-74
2021/01/04 09:10:38;;;;;;;50.60;24.88;;;1.30;58.90;;;;;;5048255;28;20047;-73
2021/01/04 09:13:16;;;;;;;52.28;24.77;;;1.30;59.20;;;;;;5048825;28;20063;-70
2021/01/04 09:15:43;;;;;;;48.13;24.25;;;1.30;58.90;;;;;;5046068;28;20057;-72
2021/01/04 09:18:29;;;;;;;44.38;23.42;;;1.20;58.90;;;;;;5052266;28;20113;-72
2021/01/04 09:21:31;;;;;;;49.38;24.98;;;1.20;58.30;;;;;;5051855;28;20057;-70
2021/01/04 09:24:31;;;;;;;47.05;22.75;;;1.20;59.50;;;;;;5049552;28;20045;-71
2021/01/04 09:27:01;;;;;;;50.30;23.65;;;1.40;59.10;;;;;;5047974;28;20094;-72
2021/01/04 09:29:32;;;;;;;43.55;22.95;;;1.50;56.90;;;;;;5048601;28;20051;-72
2021/01/04 09:32:01;;;;;;;49.63;23.25;;;1.40;55.70;;;;;;5051382;28;20049;-72
2021/01/04 09:34:30;;;;;;;50.58;25.02;;;1.40;57.10;;;;;;5046857;28;20045;-72
2021/01/04 09:37:03;;;;;;;51.42;26.63;;;1.40;59.10;;;;;;5049854;28;20106;-72
2021/01/04 09:39:32;;;;;;;45.35;24.20;;;1.50;58.10;;;;;;5052461;28;20049;-72
2021/01/04 09:42:00;;;;;;;47.92;24.25;;;1.50;55.80;;;;;;5053078;28;20049;-72
2021/01/04 09:44:27;;;;;;;49.45;23.88;;;1.50;56.10;;;;;;5050251;28;20079;-72
2021/01/04 09:47:00;;;;;;;45.92;25.02;;;1.50;55.50;;;;;;5050537;28;20095;-72
2021/01/04 09:49:34;;;;;;;46.60;22.77;;;1.50;55.60;;;;;;5051446;28;20072;-70
2021/01/04 09:52:06;;;;;;;43.63;22.52;;;1.40;53.90;;;;;;5051265;28;20049;-70
2021/01/04 09:54:39;;;;;;;43.42;22.50;;;1.30;55.50;;;;;;5045989;28;20053;-71
2021/01/04 09:57:08;;;;;;;46.85;23.65;;;1.40;57.20;;;;;;5048153;28;20049;-72
2021/01/04 09:59:41;;;;;;;45.97;23.27;;;1.60;57.20;;;;;;5048368;28;20052;-73
2021/01/04 10:02:20;;;;;;;47.53;23.83;;;1.70;55.50;;;;;;5050704;28;20065;-71
2021/01/04 10:04:47;;;;;;;44.38;22.52;;;1.70;55.00;;;;;;5045883;28;20053;-72
2021/01/04 10:07:19;;;;;;;47.17;23.80;;;1.70;55.20;;;;;;5047636;28;20499;-72
2021/01/04 10:09:49;;;;;;;42.97;22.55;;;1.60;54.50;;;;;;5049249;28;20072;-72
2021/01/04 10:12:20;;;;;;;44.97;23.20;;;1.70;56.10;;;;;;5049179;28;20139;-71
2021/01/04 10:15:01;;;;;;;43.67;22.67;;;1.70;56.40;;;;;;5045211;28;20136;-72
2021/01/04 10:17:37;;;;;;;43.03;21.55;;;1.70;55.20;;;;;;5048270;28;20056;-71
2021/01/04 10:20:14;;;;;;;42.67;21.70;;;1.80;55.10;;;;;;5049111;28;20881;-71
2021/01/04 10:22:46;;;;;;;38.85;21.25;;;1.50;54.60;;;;;;5048781;28;20061;-71
2021/01/04 10:25:21;;;;;;;44.22;22.27;;;1.70;58.30;;;;;;5044408;28;20091;-69
2021/01/04 10:27:52;;;;;;;41.42;21.92;;;1.70;56.80;;;;;;5047456;28;20052;-71
2021/01/04 10:30:26;;;;;;;37.70;22.00;;;1.60;55.00;;;;;;5048301;28;20045;-70
2021/01/04 10:33:10;;;;;;;49.30;22.88;;;1.70;55.50;;;;;;5048373;28;20132;-71
2021/01/04 10:35:37;;;;;;;43.92;21.88;;;1.70;53.40;;;;;;5041851;28;20664;-72
2021/01/04 10:38:12;;;;;;;44.60;22.85;;;1.80;53.40;;;;;;5049846;28;20487;-71
2021/01/04 10:40:45;;;;;;;44.20;22.33;;;1.80;54.20;;;;;;5048686;28;20088;-73
2021/01/04 10:43:17;;;;;;;45.15;23.15;;;1.80;51.60;;;;;;5047641;28;20078;-72
2021/01/04 10:46:15;;;;;;;42.97;22.50;;;1.90;53.90;;;;;;5041659;28;20041;-72
2021/01/04 10:52:58;;;;;;;43.33;21.73;;;1.90;51.70;;;;;;5041416;28;20063;-73
2021/01/04 10:55:27;;;;;;;43.70;22.70;;;1.80;54.30;;;;;;5047966;28;20045;-74
2021/01/04 10:58:01;;;;;;;39.67;21.58;;;1.90;53.30;;;;;;5051931;28;20060;-73
2021/01/04 11:00:31;;;;;;;43.55;22.65;;;1.90;51.70;;;;;;5051255;28;20055;-73
2021/01/04 11:03:11;;;;;;;43.42;22.40;;;1.90;51.60;;;;;;5050194;28;20502;-72
2021/01/04 11:05:42;;;;;;;45.25;23.33;;;1.90;51.70;;;;;;5048057;28;20056;-73
2021/01/04 11:08:12;;;;;;;44.15;22.80;;;2.00;51.00;;;;;;5050370;28;20098;-71
2021/01/04 11:10:39;;;;;;;43.20;22.95;;;2.00;49.90;;;;;;5050713;28;20493;-73
2021/01/04 11:13:06;;;;;;;41.78;22.40;;;2.00;50.50;;;;;;5050284;28;20140;-73
2021/01/04 11:15:34;;;;;;;48.33;23.33;;;2.00;50.50;;;;;;5049166;28;20574;-73
2021/01/04 11:18:09;;;;;;;41.80;23.45;;;2.00;51.30;;;;;;5049804;28;20072;-71
2021/01/04 11:20:37;;;;;;;;;;;2.00;51.60;;;;;;5050541;28;20049;-72
2021/01/04 11:23:06;;;;;;;39.85;20.92;;;1.90;50.60;;;;;;5049448;28;19929;-72
2021/01/04 11:25:35;;;;;;;39.80;21.38;;;2.00;48.90;;;;;;5045936;28;20053;-71
2021/01/04 11:28:01;;;;;;;44.08;21.95;;;2.00;49.60;;;;;;5049642;28;20049;-73
2021/01/04 11:30:30;;;;;;;40.83;20.65;;;1.90;48.90;;;;;;5049747;28;20503;-72
2021/01/04 11:32:58;;;;;;;41.45;22.25;;;1.90;49.30;;;;;;5049176;28;20060;-73
2021/01/04 11:35:25;;;;;;;39.83;21.90;;;2.00;49.60;;;;;;5046047;28;20048;-71
2021/01/04 11:37:54;;;;;;;42.75;21.95;;;2.00;50.20;;;;;;5049803;28;20070;-73
2021/01/04 11:40:22;;;;;;;44.13;21.92;;;2.00;50.00;;;;;;5050260;28;20052;-72
2021/01/04 11:42:50;;;;;;;42.25;21.35;;;2.00;49.90;;;;;;5049274;28;20503;-74
2021/01/04 11:45:19;;;;;;;41.80;21.77;;;2.00;50.40;;;;;;5049474;28;20059;-75
2021/01/04 11:47:47;;;;;;;43.45;23.42;;;2.00;50.30;;;;;;5046796;28;20052;-71
2021/01/04 11:50:18;;;;;;;39.33;20.20;;;2.00;50.00;;;;;;5051368;28;20257;-71
2021/01/04 11:52:45;;;;;;;40.70;22.45;;;2.10;48.40;;;;;;5050644;28;20430;-72
2021/01/04 11:55:14;;;;;;;36.92;19.67;;;2.20;48.10;;;;;;5049247;28;20056;-71
2021/01/04 11:57:41;;;;;;;41.28;20.60;;;2.10;45.80;;;;;;5050223;28;20053;-72
2021/01/04 12:00:11;;;;;;;40.95;21.70;;;2.10;47.30;;;;;;5050702;28;20403;-72
2021/01/04 12:02:39;;;;;;;38.40;20.42;;;2.00;48.30;;;;;;5049523;28;20426;-72
2021/01/04 12:05:09;;;;;;;35.28;20.40;;;2.10;48.10;;;;;;5049784;28;20051;-71
2021/01/04 12:07:36;;;;;;;38.65;20.13;;;2.20;48.10;;;;;;5049772;28;20080;-75
2021/01/04 12:10:04;;;;;;;41.80;22.15;;;2.20;47.90;;;;;;5050261;28;20052;-72
2021/01/04 12:12:31;;;;;;;36.88;20.13;;;2.10;48.10;;;;;;5049210;28;20061;-72
2021/01/04 12:14:58;;;;;;;36.55;19.33;;;2.00;48.10;;;;;;5048655;28;20148;-72
2021/01/04 12:17:26;;;;;;;34.55;19.33;;;2.10;49.90;;;;;;5049173;28;20055;-73
2021/01/04 12:19:54;;;;;;;37.83;20.00;;;2.10;49.50;;;;;;5050024;28;20049;-72
2021/01/04 12:22:20;;;;;;;35.85;19.88;;;2.00;47.40;;;;;;5044206;28;20051;-72
2021/01/04 12:24:48;;;;;;;39.67;20.83;;;2.00;51.10;;;;;;5046103;28;20367;-72
2021/01/04 12:27:17;;;;;;;37.72;20.90;;;2.10;51.90;;;;;;5047431;28;20074;-72
2021/01/04 12:29:44;;;;;;;41.25;21.55;;;2.20;50.30;;;;;;5047497;28;20411;-71
2021/01/04 12:32:12;;;;;;;38.30;21.23;;;2.20;49.40;;;;;;5045371;28;20103;-70
2021/01/04 12:34:41;;;;;;;39.65;21.48;;;2.00;51.00;;;;;;5044293;28;20053;-70
2021/01/04 12:37:08;;;;;;;38.15;21.00;;;2.10;51.90;;;;;;5046138;28;20845;-71
2021/01/04 12:39:35;;;;;;;37.65;20.83;;;2.10;51.40;;;;;;5046839;28;20423;-72
2021/01/04 12:42:03;;;;;;;39.03;20.02;;;2.20;49.70;;;;;;5051807;28;20094;-72
2021/01/04 12:44:31;;;;;;;40.03;20.90;;;2.20;48.40;;;;;;5045219;28;20080;-70
2021/01/04 12:46:58;;;;;;;35.65;19.92;;;2.20;47.60;;;;;;5049700;28;20045;-71
2021/01/04 12:49:26;;;;;;;36.55;21.02;;;2.20;49.00;;;;;;5052565;28;20419;-71
2021/01/04 12:51:55;;;;;;;39.53;20.52;;;2.30;48.40;;;;;;5051234;28;20583;-72
2021/01/04 12:54:26;;;;;;;36.22;20.17;;;2.30;46.70;;;;;;5047759;28;20419;-72
2021/01/04 12:56:55;;;;;;;38.28;20.30;;;2.20;46.30;;;;;;5047883;28;20049;-71
2021/01/04 12:59:23;;;;;;;40.50;20.08;;;2.10;46.70;;;;;;5051651;28;20434;-72
2021/01/04 13:01:52;;;;;;;43.75;21.15;;;2.20;47.00;;;;;;5052248;28;20051;-72
2021/01/04 13:04:19;;;;;;;36.60;19.70;;;2.30;48.30;;;;;;5048640;28;20045;-73
2021/01/04 13:06:47;;;;;;;38.83;21.05;;;2.20;47.00;;;;;;5047698;28;20048;-72
2021/01/04 13:09:15;;;;;;;35.72;20.27;;;2.20;49.00;;;;;;5052422;28;20049;-72
2021/01/04 13:11:45;;;;;;;39.65;20.10;;;2.20;48.00;;;;;;5050903;28;20499;-72
2021/01/04 13:14:12;;;;;;;35.15;19.98;;;2.20;49.20;;;;;;5049271;28;20045;-73
2021/01/04 13:16:40;;;;;;;33.70;20.17;;;2.30;47.80;;;;;;5048325;28;20414;-72
2021/01/04 13:19:08;;;;;;;33.63;18.90;;;2.30;44.00;;;;;;5048924;28;20041;-72
2021/01/04 13:21:36;;;;;;;36.92;19.60;;;2.30;42.40;;;;;;5050873;28;20049;-70
2021/01/04 13:24:03;;;;;;;35.40;19.55;;;2.30;44.00;;;;;;5048708;28;20072;-71
2021/01/04 13:26:40;;;;;;;35.88;19.90;;;2.40;43.00;;;;;;5046567;28;20514;-70
2021/01/04 13:29:07;;;;;;;34.53;18.95;;;2.30;42.50;;;;;;5051277;28;20136;-72